Flight Track Log - Related Links

Times and Time Zones

All times are in EST time to prevent confusion due to time zone crossing. See the AMF1990 flight status page for this flight to view local times or setup timezone preferences in your user account.

Time Position Orientation Groundspeed Altitude Reporting Facility
EST Latitude Longitude Course Direction KTS MPH feet Rate Location/Type
Fri 06:08:57 PM 29.2758 -99.0375 317° Northwest 250 288 19,900  Level Fort Worth Center
Fri 06:09:58 PM 29.3269 -99.0919 317° Northwest 251 289 20,000 49 Climbing Fort Worth Center
Fri 06:10:59 PM 29.3825 -99.1608 313° West 246 283 20,000 49 Level Fort Worth Center
Fri 06:12:00 PM 29.4372 -99.2131 320° Northwest 256 295 20,100  Climbing Houston Center
Fri 06:13:04 PM 29.4878 -99.2739 314° West 248 285 20,000 -48 Descending Houston Center
Fri 06:14:00 PM 29.5410 -99.4259 317° Northwest  Level Estimated
Fri 06:14:04 PM 29.5325 -99.3333 311° West 246 283 20,000  Level Houston Center
Fri 06:15:07 PM 29.5797 -99.3842 317° Northwest 252 290 20,000  Level Houston Center
Fri 06:16:09 PM 29.6308 -99.4389 317° Northwest 253 291 20,000 49 Level Houston Center
Fri 06:17:09 PM 29.6803 -99.4956 315° West 252 290 20,100  Climbing Houston Center
Fri 06:18:13 PM 29.7394 -99.5656 314° West 256 295 20,000 -48 Descending Houston Center
Fri 06:19:13 PM 29.7872 -99.6233 314° West 252 290 20,000  Level Houston Center
Fri 06:21:00 PM 29.8725 -99.7220 315° West  Level Estimated
Fri 06:28:00 PM 30.2063 -100.1111 315° West  Level Estimated
Fri 06:29:00 PM 30.2539 -100.1669 315° West  Level Estimated
Fri 06:30:00 PM 30.3015 -100.2228 315° West  Level Estimated
Fri 06:31:00 PM 30.3491 -100.2787 315° West  Level Estimated
Fri 06:32:00 PM 30.3966 -100.3346 315° West  Level Estimated
Fri 06:33:00 PM 30.4441 -100.3907 315° West  Level Estimated
Fri 06:34:00 PM 30.4916 -100.4467 315° West  Level Estimated
Fri 06:35:00 PM 30.5390 -100.5029 314° West  Level Estimated
Fri 06:36:00 PM 30.5865 -100.5590 314° West  Level Estimated
Fri 06:37:00 PM 30.6339 -100.6153 314° West  Level Estimated
Fri 06:38:00 PM 30.6812 -100.6715 314° West  Level Estimated
Fri 06:39:00 PM 30.7286 -100.7279 314° West  Level Estimated
Fri 06:40:00 PM 30.7759 -100.7843 314° West  Level Estimated
Fri 06:41:00 PM 30.8232 -100.8408 314° West  Level Estimated
Fri 06:42:00 PM 30.8705 -100.8973 314° West  Level Estimated
Fri 06:43:00 PM 30.9178 -100.9538 314° West  Level Estimated
Fri 06:44:00 PM 30.9650 -101.0105 314° West  Level Estimated
Fri 06:45:00 PM 31.0123 -101.0671 314° West  Level Estimated
Fri 06:46:00 PM 31.0594 -101.1239 314° West  Level Estimated
Fri 06:47:00 PM 31.1066 -101.1807 314° West  Level Estimated
Fri 06:48:00 PM 31.1537 -101.2375 314° West  Level Estimated
Fri 06:49:00 PM 31.2008 -101.2944 314° West  Level Estimated
Fri 06:50:00 PM 31.2479 -101.3514 314° West  Level Estimated
Fri 06:51:00 PM 31.2950 -101.4084 314° West  Level Estimated
Fri 06:52:00 PM 31.3420 -101.4655 314° West  Level Estimated
Fri 06:53:00 PM 31.3890 -101.5226 314° West  Level Estimated
Fri 06:54:00 PM 31.4360 -101.5798 314° West  Level Estimated
Fri 06:55:00 PM 31.4830 -101.6370 314° West  Level Estimated
Fri 06:56:00 PM 31.5299 -101.6943 314° West  Level Estimated
Fri 06:57:00 PM 31.5769 -101.7517 314° West  Level Estimated
Fri 06:58:00 PM 31.6237 -101.8091 314° West  Level Estimated
Fri 06:59:00 PM 31.6706 -101.8666 314° West  Level Estimated
Fri 07:00:00 PM 31.7174 -101.9241 314° West  Level Estimated
Fri 07:01:00 PM 31.7642 -101.9817 314° West  Level Estimated
Fri 07:02:00 PM 31.8110 -102.0394 314° West  Level Estimated
Fri 07:03:00 PM 31.8578 -102.0971 314° West  Level Estimated
Fri 07:04:00 PM 31.9045 -102.1548 314° West  Level Estimated
Fri 07:05:00 PM 31.9425 -102.2019 314° West  Level Estimated
Fri 07:06:00 PM 31.9425 -102.2019 128° Southeast  Level Estimated
Fri 07:07:00 PM 31.9425 -102.2019 128° Southeast  Level Estimated
Fri 07:08:00 PM 31.9425 -102.2019 128° Southeast  Level Estimated
Fri 07:09:00 PM 31.9425 -102.2019 128° Southeast  Level Estimated
Fri 07:10:00 PM 31.9425 -102.2019 128° Southeast  Level Estimated
Fri 07:11:00 PM 31.9425 -102.2019 128° Southeast  Level Estimated
Fri 07:12:00 PM 31.9425 -102.2019 128° Southeast  Level Estimated
Fri 07:13:00 PM 31.9425 -102.2019 128° Southeast  Level Estimated
Fri 07:14:00 PM 31.9425 -102.2019 128° Southeast  Level Estimated
Fri 07:15:00 PM 31.9425 -102.2019 128° Southeast  Level Estimated
Fri 07:16:00 PM 31.9425 -102.2019 128° Southeast  Level Estimated
Fri 07:17:00 PM 31.9425 -102.2019 128° Southeast  Level Estimated
Fri 07:18:00 PM 31.9425 -102.2019 128° Southeast  Level Estimated
Fri 07:19:00 PM 31.9425 -102.2019 128° Southeast  Level Estimated

Login

Don't have an account? Register now (free) for customized features, flight alerts, and more!